Time;durP1;ratioP1;P1;durP2;ratioP2;P2;SDS_P1;SDS_P2;PMS_P1;PMS_P2;Temp;Humidity;BMP_temperature;BMP_pressure;BME280_temperature;BME280_humidity;BME280_pressure;Samples;Min_cycle;Max_cycle;Signal;HPM_P1;HPM_P2
2024/04/15 00:01:52;;;;;;;2.60;2.38;;;;;;;;;;5453923;21;20025;-57
2024/04/15 00:04:17;;;;;;;4.10;2.80;;;;;;;;;;5421028;26;19991;-57
2024/04/15 00:06:42;;;;;;;4.80;2.53;;;;;;;;;;5411754;21;20096;-57
2024/04/15 00:09:08;;;;;;;4.35;3.03;;;;;;;;;;5479493;21;20003;-62
2024/04/15 00:11:33;;;;;;;3.30;3.00;;;;;;;;;;5481387;21;20034;-62
2024/04/15 00:13:58;;;;;;;3.15;2.95;;;;;;;;;;5457140;26;19994;-62
2024/04/15 00:16:24;;;;;;;4.97;3.58;;;;;;;;;;5456878;26;19991;-62
2024/04/15 00:18:50;;;;;;;5.25;3.45;;;;;;;;;;5456800;26;20332;-62
2024/04/15 00:21:15;;;;;;;4.20;3.53;;;;;;;;;;5456772;26;20036;-62
2024/04/15 00:23:40;;;;;;;4.22;3.83;;;;;;;;;;5425068;26;20003;-62
2024/04/15 00:26:06;;;;;;;4.63;3.58;;;;;;;;;;5456695;26;19990;-61
2024/04/15 00:28:31;;;;;;;3.83;3.30;;;;;;;;;;5456691;26;19995;-61
2024/04/15 00:30:57;;;;;;;3.38;3.05;;;;;;;;;;5456572;26;20026;-62
2024/04/15 00:33:23;;;;;;;4.28;3.00;;;;;;;;;;5456599;26;20010;-62
2024/04/15 00:35:48;;;;;;;5.28;3.72;;;;;;;;;;5456552;26;19994;-62
2024/04/15 00:38:14;;;;;;;3.50;3.25;;;;;;;;;;5456547;26;20069;-62
2024/04/15 00:40:39;;;;;;;3.30;3.00;;;;;;;;;;5456779;26;19995;-62
2024/04/15 00:43:05;;;;;;;3.53;3.25;;;;;;;;;;5456489;26;20010;-62
2024/04/15 00:45:31;;;;;;;4.88;3.70;;;;;;;;;;5456474;26;20359;-63
2024/04/15 00:47:57;;;;;;;3.35;3.05;;;;;;;;;;5456179;26;20433;-63
2024/04/15 00:50:23;;;;;;;4.03;3.63;;;;;;;;;;5456306;26;19999;-63
2024/04/15 00:52:48;;;;;;;4.18;3.20;;;;;;;;;;5456379;26;19999;-63
2024/04/15 00:55:14;;;;;;;3.80;3.35;;;;;;;;;;5456316;26;20064;-63
2024/04/15 00:57:43;;;;;;;3.72;3.42;;;;;;;;;;5424549;26;19995;-63
2024/04/15 01:00:09;;;;;;;3.15;2.90;;;;;;;;;;5456287;26;20003;-62
2024/04/15 01:02:35;;;;;;;3.55;3.25;;;;;;;;;;5456111;26;19998;-62
2024/04/15 01:05:00;;;;;;;3.67;2.85;;;;;;;;;;5456475;26;20425;-62
2024/04/15 01:07:26;;;;;;;3.13;2.83;;;;;;;;;;5455772;26;20009;-62
2024/04/15 01:09:51;;;;;;;4.32;3.08;;;;;;;;;;5453360;26;19999;-62
2024/04/15 01:12:17;;;;;;;3.60;3.40;;;;;;;;;;5451731;26;20391;-62
2024/04/15 01:14:42;;;;;;;5.03;3.17;;;;;;;;;;5420649;26;20014;-62
2024/04/15 01:17:07;;;;;;;2.88;2.67;;;;;;;;;;5420922;26;20414;-62
2024/04/15 01:19:33;;;;;;;3.25;3.03;;;;;;;;;;5452964;26;20325;-62
2024/04/15 01:21:58;;;;;;;4.10;2.80;;;;;;;;;;5452978;26;20333;-62
2024/04/15 01:24:23;;;;;;;3.00;2.80;;;;;;;;;;5452991;26;20052;-62
2024/04/15 01:26:49;;;;;;;2.78;2.58;;;;;;;;;;5451662;26;20434;-62
2024/04/15 01:29:14;;;;;;;3.10;2.80;;;;;;;;;;5420178;26;20060;-62
2024/04/15 01:31:39;;;;;;;2.63;2.42;;;;;;;;;;5419961;26;20345;-62
2024/04/15 01:34:05;;;;;;;3.30;2.30;;;;;;;;;;5451564;26;20010;-62
2024/04/15 01:36:30;;;;;;;2.85;2.40;;;;;;;;;;5451576;26;20425;-62
2024/04/15 01:38:55;;;;;;;4.07;2.40;;;;;;;;;;5451590;26;20334;-62
2024/04/15 01:41:22;;;;;;;2.28;2.05;;;;;;;;;;5454562;26;20459;-62
2024/04/15 01:43:47;;;;;;;2.42;2.22;;;;;;;;;;5455606;26;20009;-62
2024/04/15 01:46:12;;;;;;;3.00;2.38;;;;;;;;;;5455610;26;20321;-62
2024/04/15 01:48:38;;;;;;;2.60;2.40;;;;;;;;;;5455523;26;19995;-62
2024/04/15 01:51:03;;;;;;;2.67;2.45;;;;;;;;;;5455454;26;20421;-61
2024/04/15 01:53:28;;;;;;;2.90;2.20;;;;;;;;;;5455541;26;20009;-62
2024/04/15 01:55:54;;;;;;;2.80;2.47;;;;;;;;;;5455464;26;20014;-62
2024/04/15 01:58:20;;;;;;;3.22;2.55;;;;;;;;;;5455453;26;19998;-62
2024/04/15 02:00:45;;;;;;;2.83;2.28;;;;;;;;;;5455128;26;20006;-62
2024/04/15 02:03:10;;;;;;;3.33;2.28;;;;;;;;;;5455400;26;20002;-62
2024/04/15 02:05:36;;;;;;;3.35;2.70;;;;;;;;;;5455281;26;20383;-62
2024/04/15 02:08:01;;;;;;;7.07;2.67;;;;;;;;;;5455336;26;19998;-62
2024/04/15 02:10:27;;;;;;;2.97;2.60;;;;;;;;;;5455099;26;20065;-62
2024/04/15 02:12:52;;;;;;;3.20;2.50;;;;;;;;;;5454750;26;19991;-62
2024/04/15 02:15:18;;;;;;;5.10;2.78;;;;;;;;;;5422671;26;19995;-62
2024/04/15 02:17:43;;;;;;;3.35;2.40;;;;;;;;;;5455103;26;19994;-62
2024/04/15 02:20:09;;;;;;;4.43;2.60;;;;;;;;;;5455087;26;19991;-62
2024/04/15 02:22:34;;;;;;;3.05;2.50;;;;;;;;;;5455000;26;20006;-62
2024/04/15 02:25:00;;;;;;;2.60;2.40;;;;;;;;;;5423258;26;20001;-62
2024/04/15 02:27:25;;;;;;;2.92;2.63;;;;;;;;;;5455019;26;19995;-62
2024/04/15 02:29:50;;;;;;;3.92;2.70;;;;;;;;;;5454619;26;20006;-61
2024/04/15 02:32:18;;;;;;;3.67;2.83;;;;;;;;;;5454882;26;19991;-61
2024/04/15 02:34:44;;;;;;;2.83;2.33;;;;;;;;;;5454902;26;20007;-61
2024/04/15 02:37:09;;;;;;;2.17;2.08;;;;;;;;;;5454816;26;20071;-62
2024/04/15 02:39:34;;;;;;;3.33;2.60;;;;;;;;;;5454772;26;20010;-62
2024/04/15 02:42:00;;;;;;;2.70;2.33;;;;;;;;;;5454439;26;19991;-62
2024/04/15 02:44:25;;;;;;;2.25;2.08;;;;;;;;;;5454749;26;19998;-62
2024/04/15 02:46:50;;;;;;;3.65;2.25;;;;;;;;;;5454653;26;19999;-61
2024/04/15 02:49:16;;;;;;;3.13;2.35;;;;;;;;;;5454625;26;19991;-62
2024/04/15 02:51:41;;;;;;;3.53;2.30;;;;;;;;;;5454610;26;20003;-62
2024/04/15 02:54:06;;;;;;;2.63;1.80;;;;;;;;;;5454532;26;19999;-62
2024/04/15 02:56:32;;;;;;;2.40;1.98;;;;;;;;;;5454568;26;20002;-62
2024/04/15 02:58:57;;;;;;;3.47;2.28;;;;;;;;;;5454514;26;20325;-62
2024/04/15 03:01:23;;;;;;;2.60;2.40;;;;;;;;;;5454478;26;20009;-63
2024/04/15 03:03:48;;;;;;;3.38;2.50;;;;;;;;;;5454395;26;19991;-62
2024/04/15 03:06:18;;;;;;;4.20;2.03;;;;;;;;;;5422756;26;20010;-62
2024/04/15 03:08:44;;;;;;;;;;;;;;;;;;5454855;26;20345;-62
2024/04/15 03:11:10;;;;;;;2.25;2.05;;;;;;;;;;5454036;26;19924;-62
2024/04/15 03:13:35;;;;;;;2.35;2.05;;;;;;;;;;5454297;26;19995;-62
2024/04/15 03:16:00;;;;;;;2.85;2.25;;;;;;;;;;5454213;26;19995;-63
2024/04/15 03:18:26;;;;;;;4.15;2.00;;;;;;;;;;5454147;26;20003;-62
2024/04/15 03:20:51;;;;;;;1.85;1.75;;;;;;;;;;5422338;26;19991;-62
2024/04/15 03:23:16;;;;;;;4.50;2.47;;;;;;;;;;5454145;26;20309;-62
2024/04/15 03:25:42;;;;;;;5.18;2.22;;;;;;;;;;5422268;26;20314;-62
2024/04/15 03:28:08;;;;;;;3.25;2.03;;;;;;;;;;5456319;26;19991;-62
2024/04/15 03:30:34;;;;;;;2.53;2.00;;;;;;;;;;5457475;26;20010;-62
2024/04/15 03:33:00;;;;;;;3.60;2.28;;;;;;;;;;5457411;26;20068;-61
2024/04/15 03:35:25;;;;;;;3.13;2.35;;;;;;;;;;5457488;26;20433;-61
2024/04/15 03:37:51;;;;;;;2.58;2.30;;;;;;;;;;5457370;26;20497;-61
2024/04/15 03:40:17;;;;;;;4.38;2.45;;;;;;;;;;5456187;26;19999;-61
2024/04/15 03:42:42;;;;;;;3.47;2.65;;;;;;;;;;5457353;26;20006;-61
2024/04/15 03:45:07;;;;;;;3.47;2.92;;;;;;;;;;5457307;26;20510;-61
2024/04/15 03:47:34;;;;;;;3.63;3.10;;;;;;;;;;5456166;26;20425;-61
2024/04/15 03:49:59;;;;;;;2.88;2.67;;;;;;;;;;5453566;26;20006;-61
2024/04/15 03:52:24;;;;;;;3.35;3.05;;;;;;;;;;5455052;26;20007;-61
2024/04/15 03:54:50;;;;;;;3.15;2.95;;;;;;;;;;5457177;26;19995;-61
2024/04/15 03:57:15;;;;;;;3.20;2.47;;;;;;;;;;5457133;26;19995;-61
2024/04/15 03:59:40;;;;;;;3.10;2.90;;;;;;;;;;5456987;26;19994;-61
2024/04/15 04:02:06;;;;;;;5.50;2.50;;;;;;;;;;5455219;26;20036;-61
2024/04/15 04:04:31;;;;;;;2.70;2.50;;;;;;;;;;5453198;26;20001;-61
2024/04/15 04:06:57;;;;;;;2.72;2.40;;;;;;;;;;5452913;26;20040;-61
2024/04/15 04:09:23;;;;;;;3.47;2.70;;;;;;;;;;5452775;26;20006;-61
2024/04/15 04:11:48;;;;;;;2.85;2.63;;;;;;;;;;5452928;26;20402;-61
2024/04/15 04:14:14;;;;;;;2.63;2.45;;;;;;;;;;5453117;26;19994;-61
2024/04/15 04:16:40;;;;;;;2.95;2.60;;;;;;;;;;5453263;26;20009;-61
2024/04/15 04:19:05;;;;;;;4.47;2.50;;;;;;;;;;5456356;26;19999;-61
2024/04/15 04:21:31;;;;;;;2.92;2.53;;;;;;;;;;5456670;26;20001;-61
2024/04/15 04:23:59;;;;;;;2.97;2.67;;;;;;;;;;5456342;26;20455;-61
2024/04/15 04:26:24;;;;;;;4.60;2.50;;;;;;;;;;5456435;26;19995;-62
2024/04/15 04:28:49;;;;;;;2.58;2.28;;;;;;;;;;5456328;26;19994;-62
2024/04/15 04:31:16;;;;;;;2.40;2.20;;;;;;;;;;5456384;26;19998;-61
2024/04/15 04:33:41;;;;;;;2.92;2.03;;;;;;;;;;5456170;26;20002;-61
2024/04/15 04:36:07;;;;;;;4.30;2.05;;;;;;;;;;5456452;26;20002;-61
2024/04/15 04:38:32;;;;;;;2.97;1.92;;;;;;;;;;5455999;26;20002;-61
2024/04/15 04:40:57;;;;;;;2.22;1.70;;;;;;;;;;5456009;26;19991;-61
2024/04/15 04:43:23;;;;;;;2.42;1.90;;;;;;;;;;5456044;26;20007;-62
2024/04/15 04:45:49;;;;;;;3.42;1.65;;;;;;;;;;5456053;26;20010;-62
2024/04/15 04:48:14;;;;;;;2.72;1.65;;;;;;;;;;5456139;26;20009;-62
2024/04/15 04:50:39;;;;;;;2.25;1.65;;;;;;;;;;5455890;26;20083;-62
2024/04/15 04:53:05;;;;;;;2.17;1.45;;;;;;;;;;5456056;26;19995;-61
2024/04/15 04:55:31;;;;;;;3.00;2.20;;;;;;;;;;5455952;26;20344;-61
2024/04/15 04:57:57;;;;;;;2.70;2.28;;;;;;;;;;5455885;26;20006;-62
2024/04/15 05:00:22;;;;;;;4.07;2.83;;;;;;;;;;5455747;26;20421;-62
2024/04/15 05:02:48;;;;;;;3.25;2.90;;;;;;;;;;5455903;26;20006;-62
2024/04/15 05:05:13;;;;;;;3.00;2.72;;;;;;;;;;5455915;26;20002;-62
2024/04/15 05:07:39;;;;;;;3.17;2.88;;;;;;;;;;5455897;26;19999;-62
2024/04/15 05:10:04;;;;;;;3.33;2.42;;;;;;;;;;5455630;26;20006;-62
2024/04/15 05:12:29;;;;;;;2.75;2.47;;;;;;;;;;5455870;26;20333;-62
2024/04/15 05:14:55;;;;;;;2.58;2.38;;;;;;;;;;5455891;26;20005;-62
2024/04/15 05:17:20;;;;;;;4.25;2.58;;;;;;;;;;5455613;26;20010;-62
2024/04/15 05:19:46;;;;;;;2.67;2.47;;;;;;;;;;5455664;26;20084;-62
2024/04/15 05:22:11;;;;;;;2.65;2.33;;;;;;;;;;5455598;26;20009;-62
2024/04/15 05:24:36;;;;;;;2.75;2.35;;;;;;;;;;5455360;26;19998;-62
2024/04/15 05:27:02;;;;;;;2.28;2.17;;;;;;;;;;5455495;26;20007;-61
2024/04/15 05:29:27;;;;;;;2.50;2.38;;;;;;;;;;5423909;26;20081;-61
2024/04/15 05:31:53;;;;;;;2.67;2.05;;;;;;;;;;5455402;26;20001;-62
2024/04/15 05:34:18;;;;;;;4.15;3.50;;;;;;;;;;5455507;26;19999;-62
2024/04/15 05:36:43;;;;;;;2.80;2.60;;;;;;;;;;5455376;26;20394;-60
2024/04/15 05:39:08;;;;;;;2.95;2.55;;;;;;;;;;5455213;26;20325;-62
2024/04/15 05:41:34;;;;;;;5.35;2.78;;;;;;;;;;5455284;26;20003;-61
2024/04/15 05:43:59;;;;;;;2.80;2.60;;;;;;;;;;5455266;26;19994;-62
2024/04/15 05:46:25;;;;;;;3.90;2.50;;;;;;;;;;5455267;26;20411;-62
2024/04/15 05:48:50;;;;;;;3.50;3.20;;;;;;;;;;5455235;26;20014;-61
2024/04/15 05:51:16;;;;;;;7.35;6.65;;;;;;;;;;5453498;26;20072;-61
2024/04/15 05:53:42;;;;;;;5.38;3.45;;;;;;;;;;5455183;26;20009;-61
2024/04/15 05:56:08;;;;;;;3.10;2.80;;;;;;;;;;5455007;26;20006;-61
2024/04/15 05:58:33;;;;;;;5.68;3.83;;;;;;;;;;5455278;26;20009;-61
2024/04/15 06:00:58;;;;;;;42.10;31.15;;;;;;;;;;5423388;26;20068;-61
2024/04/15 06:03:24;;;;;;;15.93;10.75;;;;;;;;;;5455065;26;19999;-62
2024/04/15 06:05:50;;;;;;;2.90;2.70;;;;;;;;;;5454917;26;19990;-62
2024/04/15 06:08:16;;;;;;;2.15;1.70;;;;;;;;;;5454830;26;19998;-62
2024/04/15 06:10:41;;;;;;;2.63;1.75;;;;;;;;;;5454883;26;20002;-61
2024/04/15 06:13:06;;;;;;;2.13;1.70;;;;;;;;;;5454946;26;20429;-61
2024/04/15 06:15:37;;;;;;;3.63;2.03;;;;;;;;;;5455283;26;19995;-62
2024/04/15 06:18:02;;;;;;;;;;;;;;;;;;5455650;26;20005;-61
2024/04/15 06:20:27;;;;;;;4.82;3.33;;;;;;;;;;5455174;26;19924;-62
2024/04/15 06:22:53;;;;;;;8.68;4.18;;;;;;;;;;5454955;26;19991;-62
2024/04/15 06:25:18;;;;;;;15.50;9.30;;;;;;;;;;5454914;26;20010;-62
2024/04/15 06:27:43;;;;;;;4.68;3.80;;;;;;;;;;5454964;26;20067;-62
2024/04/15 06:30:10;;;;;;;13.23;6.45;;;;;;;;;;5454744;26;20005;-62
2024/04/15 06:32:35;;;;;;;15.88;8.07;;;;;;;;;;5455029;26;20041;-62
2024/04/15 06:35:00;;;;;;;10.77;5.57;;;;;;;;;;5454847;26;20421;-62
2024/04/15 06:37:26;;;;;;;12.90;7.78;;;;;;;;;;5393471;26;20021;-62
2024/04/15 06:39:51;;;;;;;12.35;7.63;;;;;;;;;;5422855;26;19995;-62
2024/04/15 06:42:16;;;;;;;11.95;6.22;;;;;;;;;;5454634;26;20421;-62
2024/04/15 06:44:42;;;;;;;6.07;3.80;;;;;;;;;;5454780;26;20307;-62
2024/04/15 06:47:07;;;;;;;6.65;3.30;;;;;;;;;;5455079;26;20493;-62
2024/04/15 06:49:33;;;;;;;14.88;7.10;;;;;;;;;;5454951;26;19997;-62
2024/04/15 06:51:59;;;;;;;6.72;4.63;;;;;;;;;;5454572;26;20003;-62
2024/04/15 06:54:24;;;;;;;10.63;7.10;;;;;;;;;;5454935;26;20341;-62
2024/04/15 06:56:50;;;;;;;6.47;4.10;;;;;;;;;;5455068;26;19995;-63
2024/04/15 06:59:15;;;;;;;4.55;2.28;;;;;;;;;;5454818;26;19999;-63
2024/04/15 07:01:40;;;;;;;4.05;2.50;;;;;;;;;;5454842;26;19998;-62
2024/04/15 07:04:06;;;;;;;6.82;4.80;;;;;;;;;;5454991;26;20002;-63
2024/04/15 07:06:31;;;;;;;3.75;2.20;;;;;;;;;;5454742;26;20430;-63
2024/04/15 07:08:57;;;;;;;8.60;3.80;;;;;;;;;;5454481;26;19991;-62
2024/04/15 07:11:22;;;;;;;4.25;2.95;;;;;;;;;;5422363;26;20002;-62
2024/04/15 07:13:47;;;;;;;3.35;2.30;;;;;;;;;;5454333;26;19991;-63
2024/04/15 07:16:14;;;;;;;2.67;1.98;;;;;;;;;;5454284;26;20445;-62
2024/04/15 07:18:39;;;;;;;4.28;2.20;;;;;;;;;;5453869;26;20010;-62
2024/04/15 07:21:06;;;;;;;3.58;2.75;;;;;;;;;;5453868;26;20364;-63
2024/04/15 07:23:31;;;;;;;3.00;2.55;;;;;;;;;;5454020;26;19999;-62
2024/04/15 07:25:58;;;;;;;2.90;1.75;;;;;;;;;;5422097;26;20478;-63
2024/04/15 07:28:23;;;;;;;2.65;1.65;;;;;;;;;;5456002;26;19995;-62
2024/04/15 07:30:56;;;;;;;3.67;2.40;;;;;;;;;;5453857;26;20068;-62
2024/04/15 07:33:23;;;;;;;2.83;2.20;;;;;;;;;;5453926;26;19998;-63
2024/04/15 07:35:58;;;;;;;2.38;1.88;;;;;;;;;;5453918;26;20005;-62
2024/04/15 07:38:23;;;;;;;4.47;3.50;;;;;;;;;;5453914;26;20362;-63
2024/04/15 07:40:50;;;;;;;3.22;2.17;;;;;;;;;;5453593;26;19994;-62
2024/04/15 07:43:16;;;;;;;4.43;3.53;;;;;;;;;;5453994;26;20010;-63
2024/04/15 07:45:41;;;;;;;14.88;10.52;;;;;;;;;;5453467;26;20438;-63
2024/04/15 07:48:07;;;;;;;9.57;6.03;;;;;;;;;;5453521;26;19998;-62
2024/04/15 07:50:33;;;;;;;4.57;3.17;;;;;;;;;;5453496;26;20036;-62
2024/04/15 07:53:00;;;;;;;4.93;2.50;;;;;;;;;;5453842;26;20010;-62
2024/04/15 07:55:26;;;;;;;2.58;1.98;;;;;;;;;;5452841;26;20003;-62
2024/04/15 07:57:51;;;;;;;3.78;2.17;;;;;;;;;;5452719;26;20009;-62
2024/04/15 08:00:17;;;;;;;2.15;1.90;;;;;;;;;;5451557;26;20014;-62
2024/04/15 08:02:43;;;;;;;3.67;2.10;;;;;;;;;;5451777;26;20076;-62
2024/04/15 08:05:09;;;;;;;7.57;4.25;;;;;;;;;;5451351;26;20007;-62
2024/04/15 08:07:35;;;;;;;3.47;3.00;;;;;;;;;;5452140;26;20010;-62
2024/04/15 08:10:07;;;;;;;7.70;7.00;;;;;;;;;;5451948;26;19995;-63
2024/04/15 08:12:47;;;;;;;38.13;31.02;;;;;;;;;;5452252;26;20518;-63
2024/04/15 08:15:20;;;;;;;9.45;7.15;;;;;;;;;;5455489;26;20014;-62
2024/04/15 08:17:51;;;;;;;15.02;9.75;;;;;;;;;;5456189;26;20048;-62
2024/04/15 08:20:17;;;;;;;28.77;21.60;;;;;;;;;;5456197;26;19995;-62
2024/04/15 08:22:48;;;;;;;65.93;48.53;;;;;;;;;;5426929;26;19995;-62
2024/04/15 08:25:20;;;;;;;8.02;5.90;;;;;;;;;;5426123;26;20070;-62
2024/04/15 08:27:52;;;;;;;3.80;3.50;;;;;;;;;;5456971;26;20497;-62
2024/04/15 08:30:19;;;;;;;7.32;3.28;;;;;;;;;;5456789;26;20003;-62
2024/04/15 08:32:52;;;;;;;2.90;2.40;;;;;;;;;;5426799;26;19995;-62
2024/04/15 08:35:24;;;;;;;3.20;2.30;;;;;;;;;;5424482;26;20346;-62
2024/04/15 08:38:03;;;;;;;3.58;1.85;;;;;;;;;;5424870;26;20010;-62
2024/04/15 08:40:36;;;;;;;1.92;1.48;;;;;;;;;;5456476;26;20154;-62
2024/04/15 08:43:03;;;;;;;4.18;2.42;;;;;;;;;;5456453;26;19999;-62
2024/04/15 08:45:29;;;;;;;4.07;2.00;;;;;;;;;;5455379;26;20486;-62
2024/04/15 08:47:57;;;;;;;3.78;2.08;;;;;;;;;;5456434;26;20433;-62
2024/04/15 08:50:23;;;;;;;3.53;1.70;;;;;;;;;;5456199;26;20011;-62
2024/04/15 08:52:53;;;;;;;4.68;2.70;;;;;;;;;;5456204;26;20009;-62
2024/04/15 08:55:20;;;;;;;3.87;1.70;;;;;;;;;;5455751;26;20080;-62
2024/04/15 08:57:49;;;;;;;4.80;2.05;;;;;;;;;;5455161;26;20680;-62
2024/04/15 09:00:18;;;;;;;3.72;2.60;;;;;;;;;;5455214;26;20009;-62
2024/04/15 09:02:44;;;;;;;2.65;2.33;;;;;;;;;;5455055;26;20013;-62
2024/04/15 09:05:10;;;;;;;2.25;1.55;;;;;;;;;;5455423;26;20134;-62
2024/04/15 09:07:35;;;;;;;2.78;1.38;;;;;;;;;;5455771;26;20003;-55
2024/04/15 09:10:03;;;;;;;3.58;1.55;;;;;;;;;;5455154;26;20399;-54
2024/04/15 09:12:36;;;;;;;5.82;1.60;;;;;;;;;;5424097;26;20003;-54
2024/04/15 09:15:02;;;;;;;3.45;1.20;;;;;;;;;;5455790;26;20448;-54
2024/04/15 09:17:28;;;;;;;3.03;1.58;;;;;;;;;;5456092;26;20007;-54
2024/04/15 09:19:53;;;;;;;3.63;1.35;;;;;;;;;;5455785;26;20006;-54
2024/04/15 09:22:19;;;;;;;3.60;1.52;;;;;;;;;;5455657;26;20010;-54
2024/04/15 09:24:44;;;;;;;4.40;1.50;;;;;;;;;;5454229;26;19995;-55
2024/04/15 09:27:10;;;;;;;4.15;1.55;;;;;;;;;;5455752;26;19991;-54
2024/04/15 09:29:36;;;;;;;3.58;1.10;;;;;;;;;;5455546;26;20329;-54
2024/04/15 09:32:02;;;;;;;4.07;1.30;;;;;;;;;;5455388;26;19999;-54
2024/04/15 09:34:28;;;;;;;1.70;1.10;;;;;;;;;;5423337;26;20444;-54
2024/04/15 09:36:57;;;;;;;4.07;1.55;;;;;;;;;;5455599;26;20011;-54
2024/04/15 09:39:23;;;;;;;5.82;1.88;;;;;;;;;;5454255;26;20071;-54
2024/04/15 09:41:49;;;;;;;4.50;2.00;;;;;;;;;;5453956;26;20006;-55
2024/04/15 09:44:16;;;;;;;3.10;2.22;;;;;;;;;;5455275;26;20013;-54
2024/04/15 09:46:42;;;;;;;8.73;1.98;;;;;;;;;;5455135;26;20034;-55
2024/04/15 09:49:10;;;;;;;2.20;1.60;;;;;;;;;;5423288;26;20068;-54
2024/04/15 09:51:37;;;;;;;166.05;102.78;;;;;;;;;;5455066;26;20009;-55
2024/04/15 09:54:07;;;;;;;84.28;61.92;;;;;;;;;;5454793;26;20009;-55
2024/04/15 09:56:36;;;;;;;133.43;100.03;;;;;;;;;;5454893;26;20083;-55
2024/04/15 09:59:05;;;;;;;24.90;20.25;;;;;;;;;;5454795;26;20383;-54
2024/04/15 10:01:31;;;;;;;7.40;4.45;;;;;;;;;;5454867;26;19999;-54
2024/04/15 10:04:07;;;;;;;20.80;13.65;;;;;;;;;;5423113;26;19995;-54
2024/04/15 10:06:38;;;;;;;53.80;38.90;;;;;;;;;;5455102;26;20039;-55
2024/04/15 10:09:04;;;;;;;188.45;121.63;;;;;;;;;;5453684;26;20010;-54
2024/04/15 10:11:31;;;;;;;380.83;189.30;;;;;;;;;;5453921;26;20325;-55
2024/04/15 10:13:58;;;;;;;25.52;17.50;;;;;;;;;;5423180;26;20332;-54
2024/04/15 10:16:25;;;;;;;2.70;2.35;;;;;;;;;;5454579;26;20010;-55
2024/04/15 10:18:57;;;;;;;4.88;1.85;;;;;;;;;;5454406;26;19998;-54
2024/04/15 10:21:23;;;;;;;4.35;1.90;;;;;;;;;;5454711;26;20035;-54
2024/04/15 10:23:48;;;;;;;6.70;6.00;;;;;;;;;;5453818;26;19998;-55
2024/04/15 10:26:14;;;;;;;10.80;7.88;;;;;;;;;;5453682;26;20071;-54
2024/04/15 10:28:39;;;;;;;2.85;2.60;;;;;;;;;;5454371;26;20448;-55
2024/04/15 10:31:05;;;;;;;6.78;4.78;;;;;;;;;;5454586;26;20407;-56
2024/04/15 10:33:30;;;;;;;6.45;2.50;;;;;;;;;;5454168;26;20002;-65
2024/04/15 10:35:56;;;;;;;1.85;1.60;;;;;;;;;;5453664;26;20003;-56
2024/04/15 10:38:26;;;;;;;5.15;2.42;;;;;;;;;;5422712;26;20007;-56
2024/04/15 10:40:52;;;;;;;;;;;;;;;;;;5455171;26;20430;-55
2024/04/15 10:43:18;;;;;;;2.60;1.80;;;;;;;;;;5454534;26;19924;-56
2024/04/15 10:45:47;;;;;;;3.53;1.75;;;;;;;;;;5454209;26;20079;-56
2024/04/15 10:48:29;;;;;;;2.80;1.52;;;;;;;;;;5454324;26;20002;-56
2024/04/15 10:50:54;;;;;;;2.55;1.98;;;;;;;;;;5422418;26;20324;-56
2024/04/15 10:53:23;;;;;;;4.30;1.70;;;;;;;;;;5454144;26;20003;-56
2024/04/15 10:55:49;;;;;;;7.90;1.83;;;;;;;;;;5454007;26;20002;-56
2024/04/15 10:58:18;;;;;;;248.00;149.57;;;;;;;;;;5453817;26;19995;-56
2024/04/15 11:00:44;;;;;;;6.75;5.47;;;;;;;;;;5454134;26;19999;-63
2024/04/15 11:03:15;;;;;;;3.25;2.78;;;;;;;;;;5422194;26;19999;-62
2024/04/15 11:05:41;;;;;;;21.88;19.45;;;;;;;;;;5454042;26;20017;-62
2024/04/15 11:08:08;;;;;;;7.40;6.50;;;;;;;;;;5422065;26;19991;-63
2024/04/15 11:10:33;;;;;;;2.67;1.70;;;;;;;;;;5422121;26;20406;-56
2024/04/15 11:12:58;;;;;;;3.00;2.00;;;;;;;;;;5453563;26;20006;-56
2024/04/15 11:15:25;;;;;;;4.13;3.00;;;;;;;;;;5453611;26;20068;-55
2024/04/15 11:17:52;;;;;;;3.28;1.85;;;;;;;;;;5453525;26;20003;-61
2024/04/15 11:20:18;;;;;;;5.35;2.40;;;;;;;;;;5421987;26;20411;-62
2024/04/15 11:22:44;;;;;;;3.38;1.60;;;;;;;;;;5453394;26;19994;-63
2024/04/15 11:25:10;;;;;;;4.88;2.25;;;;;;;;;;5453249;26;20370;-62
2024/04/15 11:27:39;;;;;;;5.47;3.30;;;;;;;;;;5453145;26;20010;-62
2024/04/15 11:30:07;;;;;;;7.05;2.80;;;;;;;;;;5452813;26;20073;-62
2024/04/15 11:32:33;;;;;;;3.17;1.85;;;;;;;;;;5421155;26;19991;-62
2024/04/15 11:35:03;;;;;;;3.28;1.83;;;;;;;;;;5453022;26;20068;-63
2024/04/15 11:37:32;;;;;;;3.58;1.80;;;;;;;;;;5453032;26;20003;-63
2024/04/15 11:39:58;;;;;;;4.88;3.58;;;;;;;;;;5452966;26;20010;-62
2024/04/15 11:42:27;;;;;;;5.80;2.60;;;;;;;;;;5453312;26;20441;-62
2024/04/15 11:44:52;;;;;;;3.47;1.95;;;;;;;;;;5453262;26;20003;-62
2024/04/15 11:47:18;;;;;;;3.10;2.08;;;;;;;;;;5452931;26;20074;-62
2024/04/15 11:49:47;;;;;;;3.03;2.10;;;;;;;;;;5456394;26;20002;-62
2024/04/15 11:52:13;;;;;;;2.38;1.80;;;;;;;;;;5456597;26;20014;-62
2024/04/15 11:54:39;;;;;;;2.13;1.52;;;;;;;;;;5456288;26;20025;-62
2024/04/15 11:57:05;;;;;;;2.75;1.75;;;;;;;;;;5456600;26;20018;-62
2024/04/15 11:59:31;;;;;;;3.55;1.73;;;;;;;;;;5424794;26;19999;-62
2024/04/15 12:01:57;;;;;;;4.57;1.90;;;;;;;;;;5456685;26;20068;-62
2024/04/15 12:04:24;;;;;;;4.40;2.00;;;;;;;;;;5455339;26;20445;-62
2024/04/15 12:06:52;;;;;;;3.35;1.75;;;;;;;;;;5456686;26;20336;-62
2024/04/15 12:09:18;;;;;;;3.50;1.92;;;;;;;;;;5424652;26;20034;-62
2024/04/15 12:11:44;;;;;;;3.22;1.83;;;;;;;;;;5456172;26;19998;-63
2024/04/15 12:14:10;;;;;;;3.47;1.52;;;;;;;;;;5456053;26;20445;-62
2024/04/15 12:16:36;;;;;;;3.75;1.75;;;;;;;;;;5456179;26;20003;-62
2024/04/15 12:19:01;;;;;;;3.75;1.60;;;;;;;;;;5456331;26;19995;-62
2024/04/15 12:21:27;;;;;;;2.95;1.52;;;;;;;;;;5423845;26;19999;-62
2024/04/15 12:23:52;;;;;;;5.35;2.05;;;;;;;;;;5424063;26;20010;-62
2024/04/15 12:26:17;;;;;;;2.42;1.60;;;;;;;;;;5455575;26;20355;-62
2024/04/15 12:28:43;;;;;;;2.42;1.85;;;;;;;;;;5455735;26;20067;-62
2024/04/15 12:31:11;;;;;;;5.07;1.67;;;;;;;;;;5453947;26;20003;-62
2024/04/15 12:33:36;;;;;;;4.75;2.20;;;;;;;;;;5455886;26;20013;-62
2024/04/15 12:36:03;;;;;;;3.03;2.00;;;;;;;;;;5455598;26;20344;-62
2024/04/15 12:38:28;;;;;;;4.53;2.25;;;;;;;;;;5455033;26;20006;-62
2024/04/15 12:40:54;;;;;;;3.55;2.03;;;;;;;;;;5455788;26;20003;-62
2024/04/15 12:43:19;;;;;;;5.38;2.38;;;;;;;;;;5455300;26;20009;-62
2024/04/15 12:45:45;;;;;;;5.82;2.20;;;;;;;;;;5455963;26;20100;-61
2024/04/15 12:48:14;;;;;;;6.57;2.13;;;;;;;;;;5454606;26;19995;-56
2024/04/15 12:50:40;;;;;;;3.30;1.75;;;;;;;;;;5454181;26;20007;-56
2024/04/15 12:53:05;;;;;;;2.53;1.90;;;;;;;;;;5456079;26;20087;-55
2024/04/15 12:55:31;;;;;;;3.10;1.98;;;;;;;;;;5422983;26;20044;-55
2024/04/15 12:57:56;;;;;;;3.70;2.00;;;;;;;;;;5455435;26;20048;-55
2024/04/15 13:00:22;;;;;;;2.53;2.08;;;;;;;;;;5454736;26;20437;-56
2024/04/15 13:02:48;;;;;;;8.98;2.20;;;;;;;;;;5455774;26;20445;-55
2024/04/15 13:05:14;;;;;;;8.52;2.67;;;;;;;;;;5455867;26;20006;-56
2024/04/15 13:07:39;;;;;;;3.65;1.95;;;;;;;;;;5454309;26;20006;-55
2024/04/15 13:10:38;;;;;;;2.80;2.30;;;;;;;;;;5455616;26;20006;-55
2024/04/15 13:13:04;;;;;;;4.10;2.28;;;;;;;;;;5393325;26;19999;-56
2024/04/15 13:15:30;;;;;;;3.17;2.05;;;;;;;;;;5455288;26;20003;-55
2024/04/15 13:17:58;;;;;;;2.45;1.98;;;;;;;;;;5455574;26;20071;-56
2024/04/15 13:20:23;;;;;;;3.40;1.98;;;;;;;;;;5454969;26;19999;-55
2024/04/15 13:22:49;;;;;;;8.27;3.53;;;;;;;;;;5454681;26;19995;-56
2024/04/15 13:25:15;;;;;;;7.32;4.25;;;;;;;;;;5423630;26;20469;-56
2024/04/15 13:27:40;;;;;;;7.90;4.40;;;;;;;;;;5423771;26;20044;-55
2024/04/15 13:30:06;;;;;;;3.60;2.50;;;;;;;;;;5452434;26;20394;-55
2024/04/15 13:32:31;;;;;;;6.30;2.20;;;;;;;;;;5452060;26;20011;-56
2024/04/15 13:34:59;;;;;;;2.83;2.28;;;;;;;;;;5452402;26;20064;-55
2024/04/15 13:37:24;;;;;;;3.15;1.90;;;;;;;;;;5452430;26;20014;-56
2024/04/15 13:39:50;;;;;;;3.00;1.60;;;;;;;;;;5452467;26;20067;-56
2024/04/15 13:42:16;;;;;;;4.50;1.92;;;;;;;;;;5454385;26;20442;-55
2024/04/15 13:44:42;;;;;;;3.47;2.10;;;;;;;;;;5455001;26;20003;-61
2024/04/15 13:47:07;;;;;;;6.10;2.00;;;;;;;;;;5455140;26;20449;-56
2024/04/15 13:49:33;;;;;;;2.50;2.00;;;;;;;;;;5455296;26;20002;-56
2024/04/15 13:52:21;;;;;;;4.82;2.75;;;;;;;;;;5455141;26;20005;-56
2024/04/15 13:54:47;;;;;;;2.78;1.90;;;;;;;;;;5455436;26;20013;-56
2024/04/15 13:57:12;;;;;;;4.43;2.45;;;;;;;;;;5455110;26;19999;-55
2024/04/15 13:59:39;;;;;;;2.95;1.80;;;;;;;;;;5454821;26;20075;-56
2024/04/15 14:02:39;;;;;;;4.80;2.47;;;;;;;;;;5431629;26;20043;-55
2024/04/15 14:05:05;;;;;;;9.23;2.70;;;;;;;;;;5423492;26;20075;-55
2024/04/15 14:07:31;;;;;;;6.63;3.47;;;;;;;;;;5455346;26;20390;-55
2024/04/15 14:09:56;;;;;;;10.32;4.38;;;;;;;;;;5454839;26;19999;-55
2024/04/15 14:12:21;;;;;;;6.47;4.03;;;;;;;;;;5453611;26;20501;-57
2024/04/15 14:14:47;;;;;;;9.65;4.18;;;;;;;;;;5454887;26;20002;-56
2024/04/15 14:17:14;;;;;;;11.90;4.95;;;;;;;;;;5454764;26;20007;-57
2024/04/15 14:19:42;;;;;;;11.95;6.15;;;;;;;;;;5454401;26;20086;-56
2024/04/15 14:22:07;;;;;;;9.45;4.88;;;;;;;;;;5454137;26;20021;-54
2024/04/15 14:24:34;;;;;;;12.88;5.85;;;;;;;;;;5422914;26;20006;-54
2024/04/15 14:26:59;;;;;;;8.52;5.13;;;;;;;;;;5454640;26;20029;-55
2024/04/15 14:29:25;;;;;;;10.20;5.25;;;;;;;;;;5422951;26;20001;-55
2024/04/15 14:31:51;;;;;;;9.57;4.82;;;;;;;;;;5454587;26;20002;-55
2024/04/15 14:34:16;;;;;;;8.48;4.07;;;;;;;;;;5454478;26;20026;-55
2024/04/15 14:36:42;;;;;;;5.88;4.25;;;;;;;;;;5454530;26;20002;-61